createdAt,value
2023-05-30T00:00:46.272Z,13.05
2023-05-30T00:03:13.562Z,14.77
2023-05-30T00:05:41.140Z,9.75
2023-05-30T00:08:08.360Z,16.73
2023-05-30T00:10:35.626Z,13.20
2023-05-30T00:13:03.633Z,15.02
2023-05-30T00:15:32.713Z,11.82
2023-05-30T00:18:01.773Z,11.48
2023-05-30T00:20:30.987Z,11.50
2023-05-30T00:23:01.919Z,15.10
2023-05-30T00:25:29.317Z,12.52
2023-05-30T00:27:56.515Z,12.48
2023-05-30T00:30:23.653Z,17.00
2023-05-30T00:32:50.955Z,10.88
2023-05-30T00:35:18.170Z,16.60
2023-05-30T00:37:45.576Z,11.45
2023-05-30T00:40:13.221Z,9.98
2023-05-30T00:42:40.534Z,16.52
2023-05-30T00:45:08.213Z,9.80
2023-05-30T00:47:35.604Z,14.68
2023-05-30T00:50:03.031Z,14.00
2023-05-30T00:52:30.981Z,14.00
2023-05-30T00:55:03.273Z,11.70
2023-05-30T00:57:34.936Z,19.33
2023-05-30T01:00:03.907Z,12.45
2023-05-30T01:02:36.971Z,14.25
2023-05-30T01:05:04.763Z,12.90
2023-05-30T01:07:33.165Z,16.30
2023-05-30T01:10:00.832Z,10.32
2023-05-30T01:12:44.120Z,11.38
2023-05-30T01:15:20.559Z,15.10
2023-05-30T01:18:06.413Z,11.05
2023-05-30T01:20:34.253Z,13.88
2023-05-30T01:23:34.589Z,11.35
2023-05-30T01:26:07.801Z,10.07
2023-05-30T01:28:38.074Z,13.63
2023-05-30T01:31:06.006Z,14.90
2023-05-30T01:33:34.640Z,8.93
2023-05-30T01:36:01.953Z,13.95
2023-05-30T01:38:29.587Z,16.70
2023-05-30T01:41:00.495Z,13.30
2023-05-30T01:43:33.644Z,13.35
2023-05-30T01:46:04.780Z,12.07
2023-05-30T01:48:38.210Z,16.75
2023-05-30T01:51:08.107Z,10.88
2023-05-30T01:53:43.587Z,10.75
2023-05-30T01:56:13.426Z,12.73
2023-05-30T01:58:41.157Z,15.88
2023-05-30T02:01:09.836Z,12.63
2023-05-30T02:03:37.153Z,11.65
2023-05-30T02:06:04.763Z,13.23
2023-05-30T02:08:32.481Z,12.00
2023-05-30T02:10:59.935Z,11.50
2023-05-30T02:13:27.177Z,12.65
2023-05-30T02:15:54.354Z,10.05
2023-05-30T02:18:21.982Z,13.40
2023-05-30T02:20:49.907Z,11.27
2023-05-30T02:23:17.353Z,8.63
2023-05-30T02:25:44.482Z,11.93
2023-05-30T02:28:11.714Z,13.32
2023-05-30T02:30:39.190Z,11.18
2023-05-30T02:33:06.721Z,11.35
2023-05-30T02:35:34.109Z,12.93
2023-05-30T02:38:01.582Z,13.77
2023-05-30T02:40:28.803Z,9.68
2023-05-30T02:42:56.940Z,11.27
2023-05-30T02:45:24.337Z,12.07
2023-05-30T02:47:51.542Z,12.98
2023-05-30T02:50:18.996Z,13.10
2023-05-30T02:52:46.360Z,13.95
2023-05-30T02:55:14.678Z,10.98
2023-05-30T02:58:01.380Z,14.02
2023-05-30T03:00:44.878Z,9.30
2023-05-30T03:03:20.393Z,9.85
2023-05-30T03:05:50.559Z,13.18
2023-05-30T03:08:40.892Z,18.05
2023-05-30T03:11:08.492Z,11.20
2023-05-30T03:13:35.872Z,14.25
2023-05-30T03:16:04.138Z,11.30
2023-05-30T03:18:31.403Z,13.75
2023-05-30T03:20:58.984Z,14.35
2023-05-30T03:23:26.555Z,14.35
2023-05-30T03:25:54.461Z,11.25
2023-05-30T03:28:21.733Z,10.85
2023-05-30T03:31:08.897Z,11.20
2023-05-30T03:33:36.582Z,10.00
2023-05-30T03:36:04.352Z,9.20
2023-05-30T03:38:31.503Z,8.32
2023-05-30T03:40:58.881Z,14.18
2023-05-30T03:43:26.373Z,13.70
2023-05-30T03:45:53.567Z,8.30
2023-05-30T03:48:20.682Z,10.60
2023-05-30T03:50:47.923Z,9.73
2023-05-30T03:53:15.049Z,11.27
2023-05-30T03:55:42.217Z,11.25
2023-05-30T03:58:09.374Z,12.80
2023-05-30T04:00:36.557Z,10.63
2023-05-30T04:03:03.778Z,10.07
2023-05-30T04:05:31.059Z,12.27
2023-05-30T04:07:58.273Z,9.63
2023-05-30T04:10:25.562Z,9.57
2023-05-30T04:12:52.975Z,8.80
2023-05-30T04:15:20.681Z,10.63
2023-05-30T04:17:49.915Z,11.43
2023-05-30T04:20:18.357Z,12.25
2023-05-30T04:22:46.282Z,13.30
2023-05-30T04:25:13.793Z,11.10
2023-05-30T04:27:50.184Z,15.15
2023-05-30T04:30:19.318Z,10.27
2023-05-30T04:32:46.808Z,8.93
2023-05-30T04:35:15.011Z,9.82
2023-05-30T04:37:46.166Z,12.82
2023-05-30T04:40:14.457Z,10.38
2023-05-30T04:42:42.491Z,9.70
2023-05-30T04:45:10.297Z,14.90
2023-05-30T04:47:40.015Z,11.68
2023-05-30T04:50:07.906Z,13.10
2023-05-30T04:52:35.089Z,11.68
2023-05-30T04:55:02.207Z,11.00
2023-05-30T04:57:29.367Z,10.10
2023-05-30T04:59:56.736Z,11.23
2023-05-30T05:02:29.557Z,11.57
2023-05-30T05:04:56.967Z,11.75
2023-05-30T05:07:38.012Z,13.52
2023-05-30T05:10:08.310Z,10.48
2023-05-30T05:12:35.538Z,12.88
2023-05-30T05:15:02.763Z,9.88
2023-05-30T05:17:29.965Z,11.23
2023-05-30T05:19:58.647Z,11.68
2023-05-30T05:22:26.856Z,12.20
2023-05-30T05:24:54.086Z,11.85
2023-05-30T05:27:21.251Z,12.35
2023-05-30T05:29:48.858Z,14.65
2023-05-30T05:32:16.128Z,12.48
2023-05-30T05:34:43.874Z,11.32
2023-05-30T05:37:11.042Z,9.98
2023-05-30T05:39:38.155Z,10.63
2023-05-30T05:42:05.541Z,9.10
2023-05-30T05:44:32.626Z,12.57
2023-05-30T05:46:59.907Z,17.13
2023-05-30T05:49:27.068Z,7.22
2023-05-30T05:51:54.877Z,9.13
2023-05-30T05:54:22.068Z,9.63
2023-05-30T05:56:49.278Z,12.88
2023-05-30T05:59:16.687Z,11.60
2023-05-30T06:01:44.148Z,9.57
2023-05-30T06:04:12.649Z,12.57
2023-05-30T06:06:40.057Z,8.35
2023-05-30T06:09:07.304Z,13.88
2023-05-30T06:11:34.465Z,10.40
2023-05-30T06:14:01.566Z,12.93
2023-05-30T06:16:28.901Z,10.43
2023-05-30T06:18:56.202Z,12.30
2023-05-30T06:21:23.482Z,8.93
2023-05-30T06:23:50.707Z,13.88
2023-05-30T06:26:17.920Z,11.98
2023-05-30T06:28:45.097Z,13.80
2023-05-30T06:31:12.187Z,12.02
2023-05-30T06:33:39.849Z,9.18
2023-05-30T06:36:07.128Z,15.05
2023-05-30T06:38:34.320Z,11.35
2023-05-30T06:41:01.557Z,14.73
2023-05-30T06:43:28.716Z,13.05
2023-05-30T06:45:56.110Z,10.85
2023-05-30T06:48:23.384Z,16.67
2023-05-30T06:50:50.644Z,13.25
2023-05-30T06:53:17.812Z,10.52
2023-05-30T06:55:45.191Z,11.25
2023-05-30T06:58:13.934Z,12.57
2023-05-30T07:00:41.774Z,13.60
2023-05-30T07:03:09.034Z,11.23
2023-05-30T07:05:36.350Z,9.52
2023-05-30T07:08:03.673Z,13.75
2023-05-30T07:10:30.947Z,10.32
2023-05-30T07:12:58.214Z,13.52
2023-05-30T07:15:26.888Z,12.05
2023-05-30T07:17:54.082Z,13.38
2023-05-30T07:20:24.524Z,11.13
2023-05-30T07:22:52.476Z,13.73
2023-05-30T07:25:19.651Z,14.20
2023-05-30T07:27:47.061Z,17.58
2023-05-30T07:30:14.282Z,13.43
2023-05-30T07:32:41.477Z,10.07
2023-05-30T07:35:08.875Z,9.48
2023-05-30T07:37:38.952Z,10.00
2023-05-30T07:40:06.655Z,13.32
2023-05-30T07:42:34.401Z,10.90
2023-05-30T07:45:02.067Z,10.75
2023-05-30T07:47:29.433Z,11.35
2023-05-30T07:49:56.617Z,10.30
2023-05-30T07:52:23.890Z,12.25
2023-05-30T07:54:51.066Z,14.40
2023-05-30T07:57:19.039Z,10.15
2023-05-30T07:59:46.341Z,15.98
2023-05-30T08:02:13.574Z,10.20
2023-05-30T08:04:40.953Z,13.43
2023-05-30T08:07:08.337Z,11.98
2023-05-30T08:09:37.452Z,10.32
2023-05-30T08:12:06.315Z,11.63
2023-05-30T08:14:34.039Z,13.93
2023-05-30T08:17:02.284Z,10.45
2023-05-30T08:19:31.550Z,12.13
2023-05-30T08:21:58.817Z,12.85
2023-05-30T08:24:29.463Z,13.90
2023-05-30T08:26:56.896Z,11.20
2023-05-30T08:29:24.047Z,14.10
2023-05-30T08:31:51.299Z,10.88
2023-05-30T08:34:18.516Z,9.82
2023-05-30T08:36:46.037Z,13.50
2023-05-30T08:39:15.827Z,9.15
2023-05-30T08:41:43.496Z,9.65
2023-05-30T08:44:10.780Z,10.23
2023-05-30T08:46:40.749Z,11.02
2023-05-30T08:49:09.886Z,11.50
2023-05-30T08:51:40.042Z,10.55
2023-05-30T08:54:11.597Z,12.10
2023-05-30T08:56:44.774Z,8.50
2023-05-30T08:59:13.317Z,11.82
2023-05-30T09:01:41.274Z,13.40
2023-05-30T09:04:09.466Z,15.10
2023-05-30T09:06:38.297Z,14.13
2023-05-30T09:09:05.758Z,15.27
2023-05-30T09:11:32.940Z,13.48
2023-05-30T09:14:00.175Z,11.77
2023-05-30T09:16:27.494Z,10.00
2023-05-30T09:18:54.720Z,9.77
2023-05-30T09:21:21.942Z,14.52
2023-05-30T09:23:49.632Z,12.27
2023-05-30T09:26:17.790Z,9.77
2023-05-30T09:28:49.569Z,12.38
2023-05-30T09:31:17.457Z,14.38
2023-05-30T09:33:49.144Z,11.90
2023-05-30T09:36:27.491Z,13.45
2023-05-30T09:38:56.225Z,10.02
2023-05-30T09:41:27.498Z,11.90
2023-05-30T09:43:55.437Z,8.77
2023-05-30T09:46:32.572Z,10.93
2023-05-30T09:49:00.413Z,11.63
2023-05-30T09:51:28.151Z,12.63
2023-05-30T09:53:56.472Z,11.10
2023-05-30T09:56:36.999Z,9.25
2023-05-30T09:59:08.401Z,10.27
2023-05-30T10:01:40.917Z,12.52
2023-05-30T10:04:15.219Z,13.48
2023-05-30T10:06:46.931Z,9.48
2023-05-30T10:09:14.448Z,11.60
2023-05-30T10:11:42.731Z,10.18
2023-05-30T10:14:10.343Z,10.23
2023-05-30T10:16:46.056Z,7.88
2023-05-30T10:19:14.953Z,9.88
2023-05-30T10:21:44.712Z,13.82
2023-05-30T10:24:15.162Z,11.43
2023-05-30T10:26:46.292Z,12.20
2023-05-30T10:29:14.422Z,11.45
2023-05-30T10:31:41.983Z,13.50
2023-05-30T10:34:11.357Z,12.40
2023-05-30T10:36:43.022Z,12.52
2023-05-30T10:39:17.092Z,11.50
2023-05-30T10:41:59.583Z,10.93
2023-05-30T10:44:45.717Z,9.48
2023-05-30T10:47:22.097Z,10.40
2023-05-30T10:49:51.012Z,10.18
2023-05-30T10:52:18.534Z,11.85
2023-05-30T10:54:48.636Z,9.20
2023-05-30T10:57:15.833Z,9.65
2023-05-30T10:59:43.092Z,8.43
2023-05-30T11:02:10.424Z,11.32
2023-05-30T11:04:46.562Z,9.85
2023-05-30T11:07:15.161Z,8.05
2023-05-30T11:09:43.286Z,8.23
2023-05-30T11:12:14.900Z,10.43
2023-05-30T11:14:42.163Z,9.68
2023-05-30T11:17:13.839Z,8.88
2023-05-30T11:19:44.978Z,12.52
2023-05-30T11:22:18.667Z,9.52
2023-05-30T11:24:46.298Z,11.00
2023-05-30T11:27:15.439Z,9.45
2023-05-30T11:29:45.242Z,8.35
2023-05-30T11:32:13.138Z,10.55
2023-05-30T11:34:40.752Z,9.30
2023-05-30T11:37:08.112Z,9.05
2023-05-30T11:39:36.030Z,7.93
2023-05-30T11:42:03.744Z,8.73
2023-05-30T11:44:32.171Z,11.63
2023-05-30T11:47:20.774Z,9.50
2023-05-30T11:49:57.257Z,9.20
2023-05-30T11:52:24.593Z,10.80
2023-05-30T11:54:51.757Z,9.15
2023-05-30T11:57:21.080Z,6.50
2023-05-30T11:59:51.057Z,9.38
2023-05-30T12:02:18.605Z,8.55
2023-05-30T12:04:45.972Z,7.10
2023-05-30T12:07:14.313Z,7.57
2023-05-30T12:09:42.589Z,7.88
2023-05-30T12:12:10.223Z,6.75
2023-05-30T12:14:44.030Z,6.03
2023-05-30T12:17:12.285Z,6.70
2023-05-30T12:19:39.620Z,7.05
2023-05-30T12:22:07.844Z,7.43
2023-05-30T12:24:37.192Z,8.02
2023-05-30T12:27:06.978Z,6.53
2023-05-30T12:29:34.895Z,6.13
2023-05-30T12:32:03.326Z,7.63
2023-05-30T12:34:40.292Z,11.07
2023-05-30T12:37:08.274Z,6.70
2023-05-30T12:39:35.712Z,8.02
2023-05-30T12:42:08.534Z,6.88
2023-05-30T12:44:46.021Z,8.40
2023-05-30T12:47:13.200Z,9.13
2023-05-30T12:49:41.724Z,6.93
2023-05-30T12:52:10.274Z,8.23
2023-05-30T12:54:37.635Z,9.20
2023-05-30T12:57:05.929Z,6.88
2023-05-30T12:59:33.757Z,7.38
2023-05-30T13:02:01.035Z,7.68
2023-05-30T13:04:28.293Z,10.63
2023-05-30T13:06:56.385Z,7.63
2023-05-30T13:09:23.727Z,7.63
2023-05-30T13:11:51.012Z,7.00
2023-05-30T13:14:18.518Z,8.57
2023-05-30T13:16:45.892Z,8.00
2023-05-30T13:19:13.354Z,6.93
2023-05-30T13:21:43.016Z,8.52
2023-05-30T13:24:10.335Z,9.82
2023-05-30T13:26:37.523Z,6.88
2023-05-30T13:29:05.902Z,10.98
2023-05-30T13:31:33.267Z,7.20
2023-05-30T13:34:00.657Z,8.95
2023-05-30T13:36:27.817Z,8.48
2023-05-30T13:38:55.313Z,6.95
2023-05-30T13:41:22.692Z,8.07
2023-05-30T13:43:50.173Z,7.05
2023-05-30T13:46:17.454Z,7.85
2023-05-30T13:48:44.885Z,8.07
2023-05-30T13:51:12.572Z,7.13
2023-05-30T13:53:58.752Z,6.75
2023-05-30T13:56:28.352Z,8.05
2023-05-30T13:58:55.919Z,7.50
2023-05-30T14:01:26.435Z,6.25
2023-05-30T14:03:53.676Z,11.15
2023-05-30T14:06:20.944Z,6.97
2023-05-30T14:08:48.213Z,8.32
2023-05-30T14:11:15.948Z,9.18
2023-05-30T14:13:43.377Z,7.85
2023-05-30T14:16:13.079Z,10.18
2023-05-30T14:18:46.188Z,7.88
2023-05-30T14:21:13.760Z,7.88
2023-05-30T14:23:41.292Z,6.75
2023-05-30T14:26:08.601Z,7.43
2023-05-30T14:28:36.184Z,7.72
2023-05-30T14:31:03.665Z,8.50
2023-05-30T14:33:31.155Z,6.10
2023-05-30T14:35:58.311Z,7.18
2023-05-30T14:38:25.795Z,6.53
2023-05-30T14:40:53.043Z,5.75
2023-05-30T14:43:20.561Z,7.18
2023-05-30T14:45:47.777Z,7.28
2023-05-30T14:48:15.240Z,7.93
2023-05-30T14:50:42.503Z,6.28
2023-05-30T14:53:10.328Z,6.13
2023-05-30T14:55:37.743Z,8.57
2023-05-30T14:58:04.946Z,6.50
2023-05-30T15:00:32.168Z,8.27
2023-05-30T15:02:59.645Z,7.20
2023-05-30T15:05:28.229Z,10.48
2023-05-30T15:07:55.663Z,5.45
2023-05-30T15:10:23.047Z,8.63
2023-05-30T15:12:50.261Z,7.93
2023-05-30T15:15:17.862Z,7.55
2023-05-30T15:17:45.028Z,7.50
2023-05-30T15:20:12.242Z,7.75
2023-05-30T15:22:39.493Z,6.30
2023-05-30T15:25:06.953Z,6.47
2023-05-30T15:27:34.219Z,5.55
2023-05-30T15:30:01.544Z,5.85
2023-05-30T15:32:28.856Z,6.85
2023-05-30T15:34:56.059Z,9.50
2023-05-30T15:37:23.552Z,7.05
2023-05-30T15:39:51.041Z,6.93
2023-05-30T15:42:21.622Z,7.07
2023-05-30T15:44:49.321Z,5.43
2023-05-30T15:47:16.596Z,6.68
2023-05-30T15:49:43.762Z,5.68
2023-05-30T15:52:11.042Z,5.78
2023-05-30T15:54:38.259Z,10.05
2023-05-30T15:57:06.467Z,7.75
2023-05-30T15:59:33.669Z,6.50
2023-05-30T16:02:03.065Z,6.60
2023-05-30T16:04:30.503Z,6.03
2023-05-30T16:06:58.481Z,6.80
2023-05-30T16:09:25.971Z,6.80
2023-05-30T16:11:53.229Z,6.45
2023-05-30T16:14:21.983Z,7.75
2023-05-30T16:16:49.289Z,8.80
2023-05-30T16:19:16.564Z,6.88
2023-05-30T16:21:43.801Z,6.80
2023-05-30T16:24:11.356Z,7.78
2023-05-30T16:26:39.095Z,7.65
2023-05-30T16:29:06.520Z,8.20
2023-05-30T16:31:33.981Z,5.75
2023-05-30T16:34:01.306Z,6.63
2023-05-30T16:36:29.459Z,7.47
2023-05-30T16:38:56.815Z,7.63
2023-05-30T16:41:23.976Z,6.53
2023-05-30T16:43:51.327Z,7.20
2023-05-30T16:46:18.581Z,5.63
2023-05-30T16:48:45.947Z,7.32
2023-05-30T16:51:13.470Z,10.55
2023-05-30T16:53:40.749Z,6.65
2023-05-30T16:56:16.944Z,7.68
2023-05-30T16:58:44.910Z,6.05
2023-05-30T17:01:12.238Z,7.10
2023-05-30T17:03:42.522Z,6.90
2023-05-30T17:06:12.976Z,6.03
2023-05-30T17:08:40.433Z,5.50
2023-05-30T17:11:07.611Z,6.43
2023-05-30T17:13:35.136Z,6.10
2023-05-30T17:16:02.589Z,4.47
2023-05-30T17:18:29.811Z,5.50
2023-05-30T17:20:57.099Z,6.15
2023-05-30T17:23:24.426Z,6.43
2023-05-30T17:26:01.994Z,8.50
2023-05-30T17:28:30.390Z,7.78
2023-05-30T17:30:57.860Z,6.85
2023-05-30T17:33:25.335Z,5.20
2023-05-30T17:35:52.935Z,4.95
2023-05-30T17:38:20.281Z,4.63
2023-05-30T17:40:47.494Z,6.25
2023-05-30T17:43:15.235Z,4.85
2023-05-30T17:45:42.452Z,5.05
2023-05-30T17:48:12.582Z,4.90
2023-05-30T17:50:40.116Z,5.38
2023-05-30T17:53:07.509Z,5.97
2023-05-30T17:55:34.753Z,6.28
2023-05-30T17:58:02.035Z,5.07
2023-05-30T18:00:30.844Z,4.70
2023-05-30T18:02:58.441Z,5.88
2023-05-30T18:05:27.793Z,5.78
2023-05-30T18:07:55.153Z,6.88
2023-05-30T18:10:22.391Z,5.78
2023-05-30T18:12:49.577Z,7.32
2023-05-30T18:15:16.720Z,4.10
2023-05-30T18:17:43.865Z,8.27
2023-05-30T18:20:11.630Z,3.35
2023-05-30T18:22:39.041Z,5.68
2023-05-30T18:25:07.184Z,6.10
2023-05-30T18:27:34.328Z,4.65
2023-05-30T18:30:02.084Z,4.20
2023-05-30T18:32:29.267Z,5.20
2023-05-30T18:34:56.447Z,4.32
2023-05-30T18:37:23.750Z,8.45
2023-05-30T18:39:52.169Z,5.47
2023-05-30T18:42:19.927Z,7.10
2023-05-30T18:44:47.990Z,4.35
2023-05-30T18:47:16.112Z,3.65
2023-05-30T18:49:46.566Z,4.57
2023-05-30T18:52:13.794Z,8.02
2023-05-30T18:54:41.664Z,6.40
2023-05-30T18:57:08.969Z,5.07
2023-05-30T18:59:37.154Z,4.80
2023-05-30T19:02:04.507Z,5.38
2023-05-30T19:04:31.854Z,4.43
2023-05-30T19:06:59.611Z,5.88
2023-05-30T19:09:27.340Z,5.25
2023-05-30T19:11:54.603Z,6.60
2023-05-30T19:14:21.748Z,6.82
2023-05-30T19:16:48.860Z,5.97
2023-05-30T19:19:16.071Z,4.18
2023-05-30T19:21:43.286Z,4.70
2023-05-30T19:24:10.890Z,4.95
2023-05-30T19:26:38.192Z,4.82
2023-05-30T19:29:05.330Z,6.07
2023-05-30T19:31:32.478Z,6.25
2023-05-30T19:33:59.620Z,4.43
2023-05-30T19:36:26.833Z,6.45
2023-05-30T19:38:54.019Z,6.10
2023-05-30T19:41:24.478Z,5.43
2023-05-30T19:43:51.776Z,6.05
2023-05-30T19:46:19.023Z,6.88
2023-05-30T19:48:46.243Z,6.78
2023-05-30T19:51:16.135Z,5.80
2023-05-30T19:53:43.353Z,6.68
2023-05-30T19:56:10.747Z,4.97
2023-05-30T19:58:38.019Z,5.10
2023-05-30T20:01:05.911Z,4.72
2023-05-30T20:03:33.241Z,5.35
2023-05-30T20:06:00.576Z,5.90
2023-05-30T20:08:28.064Z,4.95
2023-05-30T20:10:55.252Z,5.68
2023-05-30T20:13:22.404Z,6.25
2023-05-30T20:15:50.702Z,4.95
2023-05-30T20:18:17.999Z,8.43
2023-05-30T20:20:45.798Z,8.70
2023-05-30T20:23:13.038Z,6.32
2023-05-30T20:25:40.307Z,5.38
2023-05-30T20:28:07.501Z,5.70
2023-05-30T20:30:34.681Z,6.03
2023-05-30T20:33:02.821Z,10.23
2023-05-30T20:35:30.141Z,8.40
2023-05-30T20:37:57.399Z,6.00
2023-05-30T20:40:24.640Z,6.40
2023-05-30T20:42:51.834Z,6.80
2023-05-30T20:45:18.956Z,8.32
2023-05-30T20:47:46.847Z,7.72
2023-05-30T20:50:14.346Z,7.15
2023-05-30T20:52:41.567Z,6.70
2023-05-30T20:55:08.913Z,5.65
2023-05-30T20:57:36.151Z,6.18
2023-05-30T21:00:04.865Z,7.03
2023-05-30T21:02:32.252Z,7.22
2023-05-30T21:05:00.719Z,7.38
2023-05-30T21:07:27.994Z,6.00
2023-05-30T21:09:55.178Z,6.47
2023-05-30T21:12:22.343Z,7.38
2023-05-30T21:14:49.479Z,6.00
2023-05-30T21:17:18.190Z,6.38
2023-05-30T21:19:45.478Z,7.53
2023-05-30T21:22:12.794Z,7.78
2023-05-30T21:24:39.931Z,6.80
2023-05-30T21:27:07.219Z,6.22
2023-05-30T21:29:34.952Z,6.93
2023-05-30T21:32:02.173Z,7.38
2023-05-30T21:34:29.354Z,8.38
2023-05-30T21:36:56.623Z,9.63
2023-05-30T21:39:23.798Z,7.50
2023-05-30T21:41:50.940Z,7.10
2023-05-30T21:44:18.183Z,7.85
2023-05-30T21:46:45.436Z,6.93
2023-05-30T21:49:12.661Z,7.60
2023-05-30T21:51:39.830Z,8.68
2023-05-30T21:54:07.469Z,7.15
2023-05-30T21:56:34.795Z,7.32
2023-05-30T21:59:01.972Z,6.68
2023-05-30T22:01:29.296Z,6.47
2023-05-30T22:03:57.926Z,7.80
2023-05-30T22:06:25.287Z,7.82
2023-05-30T22:08:52.707Z,9.85
2023-05-30T22:11:20.187Z,8.75
2023-05-30T22:13:47.393Z,9.05
2023-05-30T22:16:14.783Z,7.60
2023-05-30T22:18:42.031Z,7.18
2023-05-30T22:21:09.173Z,7.40
2023-05-30T22:23:36.279Z,7.13
2023-05-30T22:26:03.435Z,8.00
2023-05-30T22:28:30.673Z,8.40
2023-05-30T22:30:57.926Z,8.82
2023-05-30T22:33:25.079Z,6.60
2023-05-30T22:35:52.312Z,8.70
2023-05-30T22:38:19.468Z,10.65
2023-05-30T22:40:46.676Z,8.20
2023-05-30T22:43:13.841Z,8.60
2023-05-30T22:45:41.042Z,7.60
2023-05-30T22:48:08.324Z,8.15
2023-05-30T22:50:35.991Z,9.02
2023-05-30T22:53:03.204Z,8.02
2023-05-30T22:55:30.627Z,9.63
2023-05-30T22:57:57.837Z,8.23
2023-05-30T23:00:25.789Z,10.93
2023-05-30T23:02:53.109Z,9.73
2023-05-30T23:05:20.688Z,11.30
2023-05-30T23:07:48.402Z,11.15
2023-05-30T23:10:16.031Z,8.10
2023-05-30T23:12:43.249Z,9.73
2023-05-30T23:15:10.521Z,8.10
2023-05-30T23:17:37.775Z,9.48
2023-05-30T23:20:05.890Z,9.02
2023-05-30T23:22:33.169Z,8.38
2023-05-30T23:25:00.327Z,10.32
2023-05-30T23:27:27.463Z,10.23
2023-05-30T23:29:54.626Z,8.68
2023-05-30T23:32:21.809Z,9.32
2023-05-30T23:34:48.981Z,7.97
2023-05-30T23:37:16.142Z,10.10
2023-05-30T23:39:43.323Z,12.13
2023-05-30T23:42:10.596Z,9.63
2023-05-30T23:44:37.798Z,9.38
2023-05-30T23:47:05.116Z,8.38
2023-05-30T23:49:32.288Z,10.95
2023-05-30T23:51:59.437Z,9.13
2023-05-30T23:54:26.724Z,13.23
2023-05-30T23:56:53.891Z,11.90
2023-05-30T23:59:21.596Z,7.80
